Chitina, Alaska
Current Conditions -  °F | °C
As of 10:19 PM on Thursday 18 Dec 2014 (Local Time) from PAGK Reporting Station
Broken Clouds Broken Clouds  
Wind Chill: -21°   Ceiling: 300
Heat Index: -7°   Visibility: 10mi
Dew Point: -12°   Wind: 7mph
Humidity: 79%   Direction: 360°N
Pressure: 29.4"   Gusts: NA
Location:  61.51°N, 144.44°W
Report Text: PAGK 190719Z AUTO 36006KT 10SM BKN003 M22/M24 A2940 RMK AO2 T12171244 TSNO
Loading
Personal Weather Stations






























Interactive Weather Map New forecast layout! Learn more

10-Day Weather Forecast

Advertisements
Track Severe Weather on mobile